< < Back
Terminal Aerodrome Forecast


Current Version              Previous Versions:   1  2  3  4  5  6  7  8  9  

Terminal Aerodrome Forecast

870
FTUS44 KBMX 050520
TAFTCL
TAF
KTCL 050520Z 0506/0606 20007KT P6SM BKN008
     FM051200 19003KT P6SM VCSH OVC015
     FM051800 23006KT P6SM BKN050
     FM060000 22006KT P6SM SCT250=

Latest METAR

976
SAUS70 KWBC 050400 RRB
MTRTCL
METAR KTCL 050353Z AUTO 17006KT 8SM OVC007 22/21 A3007 RMK AO2 CIG
005V009 SLP181 T02220206


USA.gov is the U.S. government's official web portal to all federal, state and local government web resources and services.